sensor_id;sensor_type;location;lat;lon;timestamp;pressure;altitude;pressure_sealevel;temperature;humidity
19108;BME280;9686;48.832;9.126;2023-04-08T00:01:52;98435.84;;;9.39;100.00
19108;BME280;9686;48.832;9.126;2023-04-08T00:04:18;98441.88;;;9.32;100.00
19108;BME280;9686;48.832;9.126;2023-04-08T00:06:43;98437.53;;;9.35;100.00
19108;BME280;9686;48.832;9.126;2023-04-08T00:09:08;98441.06;;;9.46;100.00
19108;BME280;9686;48.832;9.126;2023-04-08T00:11:34;98441.00;;;9.34;100.00
19108;BME280;9686;48.832;9.126;2023-04-08T00:14:01;98441.88;;;9.35;100.00
19108;BME280;9686;48.832;9.126;2023-04-08T00:16:27;98443.66;;;9.42;100.00
19108;BME280;9686;48.832;9.126;2023-04-08T00:18:52;98441.91;;;9.41;100.00
19108;BME280;9686;48.832;9.126;2023-04-08T00:21:17;98437.59;;;9.38;100.00
19108;BME280;9686;48.832;9.126;2023-04-08T00:23:45;98440.19;;;9.46;100.00
19108;BME280;9686;48.832;9.126;2023-04-08T00:26:10;98437.59;;;9.41;100.00
19108;BME280;9686;48.832;9.126;2023-04-08T00:28:36;98442.78;;;9.44;100.00
19108;BME280;9686;48.832;9.126;2023-04-08T00:31:01;98439.28;;;9.32;100.00
19108;BME280;9686;48.832;9.126;2023-04-08T00:33:26;98439.28;;;9.33;100.00
19108;BME280;9686;48.832;9.126;2023-04-08T00:35:52;98435.84;;;9.39;100.00
19108;BME280;9686;48.832;9.126;2023-04-08T00:38:17;98441.03;;;9.37;100.00
19108;BME280;9686;48.832;9.126;2023-04-08T00:40:43;98441.88;;;9.25;100.00
19108;BME280;9686;48.832;9.126;2023-04-08T00:43:08;98444.53;;;9.39;100.00
19108;BME280;9686;48.832;9.126;2023-04-08T00:45:34;98446.25;;;9.39;100.00
19108;BME280;9686;48.832;9.126;2023-04-08T00:48:01;98454.00;;;9.28;100.00
19108;BME280;9686;48.832;9.126;2023-04-08T00:50:26;98449.69;;;9.32;100.00
19108;BME280;9686;48.832;9.126;2023-04-08T00:52:52;98454.06;;;9.37;100.00
19108;BME280;9686;48.832;9.126;2023-04-08T00:55:17;98458.41;;;9.40;100.00
19108;BME280;9686;48.832;9.126;2023-04-08T00:57:42;98454.94;;;9.39;100.00
19108;BME280;9686;48.832;9.126;2023-04-08T01:00:08;98457.53;;;9.47;100.00
19108;BME280;9686;48.832;9.126;2023-04-08T01:02:41;98454.00;;;9.26;100.00
19108;BME280;9686;48.832;9.126;2023-04-08T01:05:27;98454.88;;;9.30;100.00
19108;BME280;9686;48.832;9.126;2023-04-08T01:07:54;98460.94;;;9.29;100.00
19108;BME280;9686;48.832;9.126;2023-04-08T01:10:22;98455.75;;;9.24;100.00
19108;BME280;9686;48.832;9.126;2023-04-08T01:12:56;98455.72;;;9.21;100.00
19108;BME280;9686;48.832;9.126;2023-04-08T01:15:23;98454.84;;;9.16;100.00
19108;BME280;9686;48.832;9.126;2023-04-08T01:17:52;98454.00;;;9.22;100.00
19108;BME280;9686;48.832;9.126;2023-04-08T01:20:19;98450.53;;;9.20;100.00
19108;BME280;9686;48.832;9.126;2023-04-08T01:25:35;98456.56;;;9.11;100.00
19108;BME280;9686;48.832;9.126;2023-04-08T01:28:05;98449.66;;;9.18;100.00
19108;BME280;9686;48.832;9.126;2023-04-08T01:30:31;98452.28;;;9.22;100.00
19108;BME280;9686;48.832;9.126;2023-04-08T01:32:59;98455.72;;;9.23;100.00
19108;BME280;9686;48.832;9.126;2023-04-08T01:35:26;98453.16;;;9.27;100.00
19108;BME280;9686;48.832;9.126;2023-04-08T01:37:52;98459.19;;;9.20;100.00
19108;BME280;9686;48.832;9.126;2023-04-08T01:40:19;98460.94;;;9.21;100.00
19108;BME280;9686;48.832;9.126;2023-04-08T01:42:48;98456.59;;;9.22;100.00
19108;BME280;9686;48.832;9.126;2023-04-08T01:45:15;98449.66;;;9.15;100.00
19108;BME280;9686;48.832;9.126;2023-04-08T01:47:41;98451.31;;;9.05;100.00
19108;BME280;9686;48.832;9.126;2023-04-08T01:50:08;98446.97;;;8.96;100.00
19108;BME280;9686;48.832;9.126;2023-04-08T01:52:37;98451.38;;;9.14;100.00
19108;BME280;9686;48.832;9.126;2023-04-08T01:55:04;98445.28;;;9.09;100.00
19108;BME280;9686;48.832;9.126;2023-04-08T01:57:32;98447.00;;;9.10;100.00
19108;BME280;9686;48.832;9.126;2023-04-08T02:00:01;98457.38;;;8.98;100.00
19108;BME280;9686;48.832;9.126;2023-04-08T02:02:27;98453.88;;;8.93;100.00
19108;BME280;9686;48.832;9.126;2023-04-08T02:04:53;98458.22;;;8.95;100.00
19108;BME280;9686;48.832;9.126;2023-04-08T02:07:19;98452.16;;;8.96;100.00
19108;BME280;9686;48.832;9.126;2023-04-08T02:09:45;98454.78;;;9.04;100.00
19108;BME280;9686;48.832;9.126;2023-04-08T02:12:10;98453.03;;;9.00;100.00
19108;BME280;9686;48.832;9.126;2023-04-08T02:14:36;98461.72;;;9.04;100.00
19108;BME280;9686;48.832;9.126;2023-04-08T02:17:09;98459.09;;;8.93;100.00
19108;BME280;9686;48.832;9.126;2023-04-08T02:19:43;98455.63;;;8.94;100.00
19108;BME280;9686;48.832;9.126;2023-04-08T02:22:23;98459.97;;;8.92;100.00
19108;BME280;9686;48.832;9.126;2023-04-08T02:24:50;98458.22;;;8.88;100.00
19108;BME280;9686;48.832;9.126;2023-04-08T02:27:16;98464.19;;;8.75;100.00
19108;BME280;9686;48.832;9.126;2023-04-08T02:29:42;98468.53;;;8.80;100.00
19108;BME280;9686;48.832;9.126;2023-04-08T02:32:10;98465.09;;;8.84;100.00
19108;BME280;9686;48.832;9.126;2023-04-08T02:34:39;98466.81;;;8.79;100.00
19108;BME280;9686;48.832;9.126;2023-04-08T02:37:04;98455.50;;;8.70;100.00
19108;BME280;9686;48.832;9.126;2023-04-08T02:39:31;98465.84;;;8.59;100.00
19108;BME280;9686;48.832;9.126;2023-04-08T02:41:56;98467.59;;;8.60;100.00
19108;BME280;9686;48.832;9.126;2023-04-08T02:44:22;98471.06;;;8.63;100.00
19108;BME280;9686;48.832;9.126;2023-04-08T02:46:47;98463.25;;;8.59;100.00
19108;BME280;9686;48.832;9.126;2023-04-08T02:49:12;98460.63;;;8.57;100.00
19108;BME280;9686;48.832;9.126;2023-04-08T02:51:37;98462.41;;;8.60;100.00
19108;BME280;9686;48.832;9.126;2023-04-08T02:54:03;98464.91;;;8.52;100.00
19108;BME280;9686;48.832;9.126;2023-04-08T02:56:28;98466.66;;;8.50;100.00
19108;BME280;9686;48.832;9.126;2023-04-08T02:58:53;98468.34;;;8.45;100.00
19108;BME280;9686;48.832;9.126;2023-04-08T03:01:19;98472.66;;;8.43;100.00
19108;BME280;9686;48.832;9.126;2023-04-08T03:03:44;98470.09;;;8.46;100.00
19108;BME280;9686;48.832;9.126;2023-04-08T03:06:10;98467.47;;;8.42;100.00
19108;BME280;9686;48.832;9.126;2023-04-08T03:08:35;98467.50;;;8.46;100.00
19108;BME280;9686;48.832;9.126;2023-04-08T03:11:00;98468.38;;;8.50;100.00
19108;BME280;9686;48.832;9.126;2023-04-08T03:13:26;98468.34;;;8.42;100.00
19108;BME280;9686;48.832;9.126;2023-04-08T03:15:51;98460.59;;;8.51;100.00
19108;BME280;9686;48.832;9.126;2023-04-08T03:18:16;98468.38;;;8.50;100.00
19108;BME280;9686;48.832;9.126;2023-04-08T03:20:42;98469.22;;;8.46;100.00
19108;BME280;9686;48.832;9.126;2023-04-08T03:23:07;98469.22;;;8.44;100.00
19108;BME280;9686;48.832;9.126;2023-04-08T03:25:32;98465.78;;;8.51;100.00
19108;BME280;9686;48.832;9.126;2023-04-08T03:27:58;98468.34;;;8.44;100.00
19108;BME280;9686;48.832;9.126;2023-04-08T03:30:23;98465.75;;;8.45;100.00
19108;BME280;9686;48.832;9.126;2023-04-08T03:32:48;98463.22;;;8.57;100.00
19108;BME280;9686;48.832;9.126;2023-04-08T03:35:13;98460.59;;;8.51;100.00
19108;BME280;9686;48.832;9.126;2023-04-08T03:37:39;98470.06;;;8.43;100.00
19108;BME280;9686;48.832;9.126;2023-04-08T03:40:05;98471.78;;;8.37;100.00
19108;BME280;9686;48.832;9.126;2023-04-08T03:42:30;98468.31;;;8.38;100.00
19108;BME280;9686;48.832;9.126;2023-04-08T03:44:56;98469.19;;;8.41;100.00
19108;BME280;9686;48.832;9.126;2023-04-08T03:47:21;98476.97;;;8.38;100.00
19108;BME280;9686;48.832;9.126;2023-04-08T03:49:46;98481.28;;;8.34;100.00
19108;BME280;9686;48.832;9.126;2023-04-08T03:52:12;98483.91;;;8.39;100.00
19108;BME280;9686;48.832;9.126;2023-04-08T03:54:37;98480.47;;;8.46;100.00
19108;BME280;9686;48.832;9.126;2023-04-08T03:57:02;98478.88;;;8.63;100.00
19108;BME280;9686;48.832;9.126;2023-04-08T03:59:28;98476.25;;;8.60;100.00
19108;BME280;9686;48.832;9.126;2023-04-08T04:01:53;98470.19;;;8.63;100.00
19108;BME280;9686;48.832;9.126;2023-04-08T04:04:18;98471.00;;;8.56;100.00
19108;BME280;9686;48.832;9.126;2023-04-08T04:06:44;98473.56;;;8.51;100.00
19108;BME280;9686;48.832;9.126;2023-04-08T04:09:10;98475.31;;;8.49;100.00
19108;BME280;9686;48.832;9.126;2023-04-08T04:11:35;98466.69;;;8.56;100.00
19108;BME280;9686;48.832;9.126;2023-04-08T04:14:00;98471.00;;;8.54;100.00
19108;BME280;9686;48.832;9.126;2023-04-08T04:16:26;98466.63;;;8.47;100.00
19108;BME280;9686;48.832;9.126;2023-04-08T04:18:51;98472.75;;;8.58;100.00
19108;BME280;9686;48.832;9.126;2023-04-08T04:21:17;98470.13;;;8.55;100.00
19108;BME280;9686;48.832;9.126;2023-04-08T04:23:42;98468.41;;;8.54;100.00
19108;BME280;9686;48.832;9.126;2023-04-08T04:26:08;98464.91;;;8.52;100.00
19108;BME280;9686;48.832;9.126;2023-04-08T04:28:34;98471.81;;;8.46;100.00
19108;BME280;9686;48.832;9.126;2023-04-08T04:30:59;98474.25;;;8.29;100.00
19108;BME280;9686;48.832;9.126;2023-04-08T04:33:24;98476.81;;;8.24;100.00
19108;BME280;9686;48.832;9.126;2023-04-08T04:35:50;98474.25;;;8.27;100.00
19108;BME280;9686;48.832;9.126;2023-04-08T04:38:15;98474.19;;;8.20;100.00
19108;BME280;9686;48.832;9.126;2023-04-08T04:40:41;98469.88;;;8.20;100.00
19108;BME280;9686;48.832;9.126;2023-04-08T04:43:06;98475.94;;;8.22;100.00
19108;BME280;9686;48.832;9.126;2023-04-08T04:45:32;98471.59;;;8.17;100.00
19108;BME280;9686;48.832;9.126;2023-04-08T04:47:57;98482.91;;;8.26;100.00
19108;BME280;9686;48.832;9.126;2023-04-08T04:50:22;98488.03;;;8.16;100.00
19108;BME280;9686;48.832;9.126;2023-04-08T04:52:48;98487.19;;;8.20;100.00
19108;BME280;9686;48.832;9.126;2023-04-08T04:55:13;98482.81;;;8.13;100.00
19108;BME280;9686;48.832;9.126;2023-04-08T04:57:40;98489.78;;;8.21;100.00
19108;BME280;9686;48.832;9.126;2023-04-08T05:00:06;98492.31;;;8.11;100.00
19108;BME280;9686;48.832;9.126;2023-04-08T05:02:32;98499.28;;;8.16;100.00
19108;BME280;9686;48.832;9.126;2023-04-08T05:04:57;98498.38;;;8.11;100.00
19108;BME280;9686;48.832;9.126;2023-04-08T05:07:23;98498.25;;;7.99;100.00
19108;BME280;9686;48.832;9.126;2023-04-08T05:09:48;98499.22;;;8.10;100.00
19108;BME280;9686;48.832;9.126;2023-04-08T05:12:13;98511.22;;;7.97;100.00
19108;BME280;9686;48.832;9.126;2023-04-08T05:14:38;98505.28;;;8.09;100.00
19108;BME280;9686;48.832;9.126;2023-04-08T05:17:05;98509.59;;;8.09;100.00
19108;BME280;9686;48.832;9.126;2023-04-08T05:19:30;98507.81;;;8.03;100.00
19108;BME280;9686;48.832;9.126;2023-04-08T05:21:55;98506.94;;;8.02;100.00
19108;BME280;9686;48.832;9.126;2023-04-08T05:24:21;98517.38;;;8.07;100.00
19108;BME280;9686;48.832;9.126;2023-04-08T05:26:46;98509.63;;;8.13;100.00
19108;BME280;9686;48.832;9.126;2023-04-08T05:29:16;98515.69;;;8.12;100.00
19108;BME280;9686;48.832;9.126;2023-04-08T05:31:42;98531.13;;;8.00;100.00
19108;BME280;9686;48.832;9.126;2023-04-08T05:34:07;98520.78;;;8.03;100.00
19108;BME280;9686;48.832;9.126;2023-04-08T05:36:33;98513.94;;;8.11;100.00
19108;BME280;9686;48.832;9.126;2023-04-08T05:38:58;98525.22;;;8.12;100.00
19108;BME280;9686;48.832;9.126;2023-04-08T05:41:23;98532.09;;;8.08;100.00
19108;BME280;9686;48.832;9.126;2023-04-08T05:43:48;98539.06;;;8.12;100.00
19108;BME280;9686;48.832;9.126;2023-04-08T05:46:14;98530.41;;;8.15;100.00
19108;BME280;9686;48.832;9.126;2023-04-08T05:48:39;98535.66;;;8.22;100.00
19108;BME280;9686;48.832;9.126;2023-04-08T05:51:05;98534.00;;;8.30;100.00
19108;BME280;9686;48.832;9.126;2023-04-08T05:53:30;98540.16;;;8.37;100.00
19108;BME280;9686;48.832;9.126;2023-04-08T05:55:55;98539.19;;;8.29;100.00
19108;BME280;9686;48.832;9.126;2023-04-08T05:58:20;98540.25;;;8.51;100.00
19108;BME280;9686;48.832;9.126;2023-04-08T06:00:46;98542.00;;;8.52;100.00
19108;BME280;9686;48.832;9.126;2023-04-08T06:03:11;98542.03;;;8.56;100.00
19108;BME280;9686;48.832;9.126;2023-04-08T06:05:36;98538.63;;;8.63;100.00
19108;BME280;9686;48.832;9.126;2023-04-08T06:08:01;98547.28;;;8.59;100.00
19108;BME280;9686;48.832;9.126;2023-04-08T06:10:27;98551.53;;;8.51;100.00
19108;BME280;9686;48.832;9.126;2023-04-08T06:12:52;98553.25;;;8.49;100.00
19108;BME280;9686;48.832;9.126;2023-04-08T06:15:17;98562.75;;;8.46;100.00
19108;BME280;9686;48.832;9.126;2023-04-08T06:17:43;98554.22;;;8.62;100.00
19108;BME280;9686;48.832;9.126;2023-04-08T06:20:08;98557.69;;;8.65;100.00
19108;BME280;9686;48.832;9.126;2023-04-08T06:22:34;98569.00;;;8.74;100.00
19108;BME280;9686;48.832;9.126;2023-04-08T06:25:00;98556.91;;;8.77;100.00
19108;BME280;9686;48.832;9.126;2023-04-08T06:27:26;98563.84;;;8.81;100.00
19108;BME280;9686;48.832;9.126;2023-04-08T06:29:51;98563.84;;;8.80;100.00
19108;BME280;9686;48.832;9.126;2023-04-08T06:32:17;98559.50;;;8.79;100.00
19108;BME280;9686;48.832;9.126;2023-04-08T06:34:44;98566.53;;;8.89;100.00
19108;BME280;9686;48.832;9.126;2023-04-08T06:37:10;98566.56;;;8.93;100.00
19108;BME280;9686;48.832;9.126;2023-04-08T06:39:35;98562.25;;;9.00;100.00
19108;BME280;9686;48.832;9.126;2023-04-08T06:42:00;98564.88;;;9.03;100.00
19108;BME280;9686;48.832;9.126;2023-04-08T06:44:26;98565.69;;;8.94;100.00
19108;BME280;9686;48.832;9.126;2023-04-08T06:46:51;98571.81;;;9.09;100.00
19108;BME280;9686;48.832;9.126;2023-04-08T06:49:16;98574.47;;;9.12;100.00
19108;BME280;9686;48.832;9.126;2023-04-08T06:51:42;98580.50;;;9.08;100.00
19108;BME280;9686;48.832;9.126;2023-04-08T06:54:07;98574.47;;;9.12;100.00
19108;BME280;9686;48.832;9.126;2023-04-08T06:56:34;98570.97;;;9.10;100.00
19108;BME280;9686;48.832;9.126;2023-04-08T06:58:59;98582.22;;;9.07;100.00
19108;BME280;9686;48.832;9.126;2023-04-08T07:01:25;98581.41;;;9.11;100.00
19108;BME280;9686;48.832;9.126;2023-04-08T07:03:50;98572.81;;;9.29;100.00
19108;BME280;9686;48.832;9.126;2023-04-08T07:06:16;98590.13;;;9.25;100.00
19108;BME280;9686;48.832;9.126;2023-04-08T07:08:41;98582.34;;;9.27;100.00
19108;BME280;9686;48.832;9.126;2023-04-08T07:11:06;98582.34;;;9.32;100.00
19108;BME280;9686;48.832;9.126;2023-04-08T07:13:32;98584.09;;;9.30;100.00
19108;BME280;9686;48.832;9.126;2023-04-08T07:15:57;98580.69;;;9.38;100.00
19108;BME280;9686;48.832;9.126;2023-04-08T07:18:23;98585.00;;;9.39;100.00
19108;BME280;9686;48.832;9.126;2023-04-08T07:20:52;98586.81;;;9.60;100.00
19108;BME280;9686;48.832;9.126;2023-04-08T07:23:18;98585.06;;;9.59;100.00
19108;BME280;9686;48.832;9.126;2023-04-08T07:25:44;98592.03;;;9.62;100.00
19108;BME280;9686;48.832;9.126;2023-04-08T07:28:09;98587.72;;;9.64;100.00
19108;BME280;9686;48.832;9.126;2023-04-08T07:30:35;98588.53;;;9.56;100.00
19108;BME280;9686;48.832;9.126;2023-04-08T07:33:00;98582.53;;;9.71;100.00
19108;BME280;9686;48.832;9.126;2023-04-08T07:35:25;98586.91;;;9.84;100.00
19108;BME280;9686;48.832;9.126;2023-04-08T07:37:51;98586.09;;;10.05;100.00
19108;BME280;9686;48.832;9.126;2023-04-08T07:40:17;98586.97;;;10.07;100.00
19108;BME280;9686;48.832;9.126;2023-04-08T07:42:43;98588.69;;;9.92;100.00
19108;BME280;9686;48.832;9.126;2023-04-08T07:45:08;98588.69;;;9.95;100.00
19108;BME280;9686;48.832;9.126;2023-04-08T07:47:34;98596.44;;;9.82;100.00
19108;BME280;9686;48.832;9.126;2023-04-08T07:49:59;98599.97;;;9.91;100.00
19108;BME280;9686;48.832;9.126;2023-04-08T07:52:25;98587.81;;;9.99;100.00
19108;BME280;9686;48.832;9.126;2023-04-08T07:54:50;98596.50;;;10.05;100.00
19108;BME280;9686;48.832;9.126;2023-04-08T07:57:15;98593.06;;;10.17;100.00
19108;BME280;9686;48.832;9.126;2023-04-08T07:59:41;98593.03;;;10.08;100.00
19108;BME280;9686;48.832;9.126;2023-04-08T08:02:06;98593.91;;;10.14;100.00
19108;BME280;9686;48.832;9.126;2023-04-08T08:04:31;98601.72;;;10.05;100.00
19108;BME280;9686;48.832;9.126;2023-04-08T08:06:57;98603.53;;;10.37;100.00
19108;BME280;9686;48.832;9.126;2023-04-08T08:09:22;98598.34;;;10.47;100.00
19108;BME280;9686;48.832;9.126;2023-04-08T08:11:47;98596.63;;;10.68;100.00
19108;BME280;9686;48.832;9.126;2023-04-08T08:14:13;98600.06;;;10.59;100.00
19108;BME280;9686;48.832;9.126;2023-04-08T08:16:38;98605.28;;;10.59;100.00
19108;BME280;9686;48.832;9.126;2023-04-08T08:19:04;98589.66;;;10.68;100.00
19108;BME280;9686;48.832;9.126;2023-04-08T08:21:31;98596.59;;;10.88;100.00
19108;BME280;9686;48.832;9.126;2023-04-08T08:23:57;98607.88;;;10.91;100.00
19108;BME280;9686;48.832;9.126;2023-04-08T08:26:24;98611.34;;;11.07;100.00
19108;BME280;9686;48.832;9.126;2023-04-08T08:28:49;98606.16;;;10.96;100.00
19108;BME280;9686;48.832;9.126;2023-04-08T08:31:14;98608.78;;;10.81;100.00
19108;BME280;9686;48.832;9.126;2023-04-08T08:33:40;98608.78;;;10.93;100.00
19108;BME280;9686;48.832;9.126;2023-04-08T08:36:05;98609.63;;;11.00;100.00
19108;BME280;9686;48.832;9.126;2023-04-08T08:38:31;98610.47;;;11.06;100.00
19108;BME280;9686;48.832;9.126;2023-04-08T08:40:57;98613.91;;;11.30;100.00
19108;BME280;9686;48.832;9.126;2023-04-08T08:43:24;98617.38;;;11.38;100.00
19108;BME280;9686;48.832;9.126;2023-04-08T08:45:49;98614.78;;;11.33;100.00
19108;BME280;9686;48.832;9.126;2023-04-08T08:48:15;98612.13;;;11.49;100.00
19108;BME280;9686;48.832;9.126;2023-04-08T08:50:41;98619.13;;;11.37;100.00
19108;BME280;9686;48.832;9.126;2023-04-08T08:53:06;98620.00;;;11.32;100.00
19108;BME280;9686;48.832;9.126;2023-04-08T08:55:32;98619.13;;;11.45;100.00
19108;BME280;9686;48.832;9.126;2023-04-08T08:58:01;98626.94;;;11.50;100.00
19108;BME280;9686;48.832;9.126;2023-04-08T09:00:32;98625.19;;;11.46;100.00
19108;BME280;9686;48.832;9.126;2023-04-08T09:03:18;98622.53;;;11.62;100.00
19108;BME280;9686;48.832;9.126;2023-04-08T09:08:34;98634.69;;;11.63;100.00
19108;BME280;9686;48.832;9.126;2023-04-08T09:11:25;98632.91;;;11.87;100.00
19108;BME280;9686;48.832;9.126;2023-04-08T09:13:51;98635.47;;;12.00;100.00
19108;BME280;9686;48.832;9.126;2023-04-08T09:16:17;98633.72;;;11.95;100.00
19108;BME280;9686;48.832;9.126;2023-04-08T09:18:44;98623.25;;;11.96;100.00
19108;BME280;9686;48.832;9.126;2023-04-08T09:21:12;98633.63;;;12.15;100.00
19108;BME280;9686;48.832;9.126;2023-04-08T09:23:48;98638.97;;;11.98;100.00
19108;BME280;9686;48.832;9.126;2023-04-08T09:28:57;98631.00;;;12.19;100.00
19108;BME280;9686;48.832;9.126;2023-04-08T09:31:25;98632.72;;;12.23;100.00
19108;BME280;9686;48.832;9.126;2023-04-08T09:33:54;98623.16;;;12.24;100.00
19108;BME280;9686;48.832;9.126;2023-04-08T09:36:20;98623.97;;;12.32;100.00
19108;BME280;9686;48.832;9.126;2023-04-08T09:38:46;98630.88;;;12.38;100.00
19108;BME280;9686;48.832;9.126;2023-04-08T09:41:14;98630.84;;;12.42;100.00
19108;BME280;9686;48.832;9.126;2023-04-08T09:43:43;98630.97;;;12.22;100.00
19108;BME280;9686;48.832;9.126;2023-04-08T09:46:14;98629.97;;;12.43;100.00
19108;BME280;9686;48.832;9.126;2023-04-08T09:48:48;98628.31;;;12.33;99.47
19108;BME280;9686;48.832;9.126;2023-04-08T09:51:18;98630.81;;;12.48;99.21
19108;BME280;9686;48.832;9.126;2023-04-08T09:53:46;98627.16;;;12.69;100.00
19108;BME280;9686;48.832;9.126;2023-04-08T09:56:13;98633.16;;;12.85;100.00
19108;BME280;9686;48.832;9.126;2023-04-08T09:58:53;98633.00;;;13.03;86.23
19108;BME280;9686;48.832;9.126;2023-04-08T10:01:25;98631.09;;;13.22;84.12
19108;BME280;9686;48.832;9.126;2023-04-08T10:03:53;98632.03;;;13.12;72.80
19108;BME280;9686;48.832;9.126;2023-04-08T10:06:21;98632.94;;;13.11;79.25
19108;BME280;9686;48.832;9.126;2023-04-08T10:08:52;98634.63;;;13.15;67.85
19108;BME280;9686;48.832;9.126;2023-04-08T10:11:17;98635.38;;;13.32;71.38
19108;BME280;9686;48.832;9.126;2023-04-08T10:13:43;98626.75;;;13.21;69.04
19108;BME280;9686;48.832;9.126;2023-04-08T10:16:22;98622.94;;;13.54;79.54
19108;BME280;9686;48.832;9.126;2023-04-08T10:18:49;98629.09;;;13.47;77.59
19108;BME280;9686;48.832;9.126;2023-04-08T10:21:39;98632.81;;;13.23;54.35
19108;BME280;9686;48.832;9.126;2023-04-08T10:24:12;98630.44;;;12.94;58.62
19108;BME280;9686;48.832;9.126;2023-04-08T10:26:42;98634.69;;;13.10;63.17
19108;BME280;9686;48.832;9.126;2023-04-08T10:29:29;98634.78;;;13.01;69.38
19108;BME280;9686;48.832;9.126;2023-04-08T10:31:54;98627.66;;;13.14;70.58
19108;BME280;9686;48.832;9.126;2023-04-08T10:34:23;98633.09;;;12.91;65.63
19108;BME280;9686;48.832;9.126;2023-04-08T10:36:50;98627.13;;;12.74;65.74
19108;BME280;9686;48.832;9.126;2023-04-08T10:39:16;98626.19;;;12.82;71.62
19108;BME280;9686;48.832;9.126;2023-04-08T10:41:45;98630.47;;;12.92;64.44
19108;BME280;9686;48.832;9.126;2023-04-08T10:44:17;98636.66;;;12.84;70.34
19108;BME280;9686;48.832;9.126;2023-04-08T10:46:47;98630.72;;;12.60;68.09
19108;BME280;9686;48.832;9.126;2023-04-08T10:49:16;98633.34;;;12.62;71.41
19108;BME280;9686;48.832;9.126;2023-04-08T10:51:42;98626.56;;;12.32;67.37
19108;BME280;9686;48.832;9.126;2023-04-08T10:54:09;98626.53;;;12.37;74.86
19108;BME280;9686;48.832;9.126;2023-04-08T10:56:35;98633.41;;;12.48;72.55
19108;BME280;9686;48.832;9.126;2023-04-08T10:59:02;98623.97;;;12.32;76.83
19108;BME280;9686;48.832;9.126;2023-04-08T11:01:37;98625.81;;;12.10;72.31
19108;BME280;9686;48.832;9.126;2023-04-08T11:04:15;98627.47;;;12.26;76.56
19108;BME280;9686;48.832;9.126;2023-04-08T11:06:43;98626.59;;;12.27;76.36
19108;BME280;9686;48.832;9.126;2023-04-08T11:09:09;98629.22;;;12.26;79.17
19108;BME280;9686;48.832;9.126;2023-04-08T11:11:34;98626.75;;;12.01;77.46
19108;BME280;9686;48.832;9.126;2023-04-08T11:14:00;98633.63;;;12.13;83.00
19108;BME280;9686;48.832;9.126;2023-04-08T11:16:26;98629.25;;;12.17;74.63
19108;BME280;9686;48.832;9.126;2023-04-08T11:18:53;98630.16;;;12.14;80.56
19108;BME280;9686;48.832;9.126;2023-04-08T11:21:20;98626.66;;;12.17;78.29
19108;BME280;9686;48.832;9.126;2023-04-08T11:23:50;98624.00;;;12.21;73.91
19108;BME280;9686;48.832;9.126;2023-04-08T11:26:17;98631.88;;;12.15;68.17
19108;BME280;9686;48.832;9.126;2023-04-08T11:28:43;98628.28;;;12.38;71.47
19108;BME280;9686;48.832;9.126;2023-04-08T11:31:10;98627.47;;;12.28;75.00
19108;BME280;9686;48.832;9.126;2023-04-08T11:33:36;98625.84;;;12.06;67.36
19108;BME280;9686;48.832;9.126;2023-04-08T11:36:03;98627.50;;;12.19;71.34
19108;BME280;9686;48.832;9.126;2023-04-08T11:38:28;98622.31;;;12.13;78.01
19108;BME280;9686;48.832;9.126;2023-04-08T11:40:55;98621.47;;;12.11;79.54
19108;BME280;9686;48.832;9.126;2023-04-08T11:43:20;98610.97;;;12.15;76.00
19108;BME280;9686;48.832;9.126;2023-04-08T11:45:46;98614.50;;;12.08;76.73
19108;BME280;9686;48.832;9.126;2023-04-08T11:48:13;98611.88;;;12.11;73.37
19108;BME280;9686;48.832;9.126;2023-04-08T11:50:40;98614.34;;;12.34;78.09
19108;BME280;9686;48.832;9.126;2023-04-08T11:53:19;98614.41;;;12.28;73.00
19108;BME280;9686;48.832;9.126;2023-04-08T11:55:44;98615.31;;;12.16;69.53
19108;BME280;9686;48.832;9.126;2023-04-08T11:58:10;98616.16;;;12.23;71.25
19108;BME280;9686;48.832;9.126;2023-04-08T12:00:36;98622.28;;;12.25;70.16
19108;BME280;9686;48.832;9.126;2023-04-08T12:03:01;98621.31;;;12.35;70.00
19108;BME280;9686;48.832;9.126;2023-04-08T12:05:27;98616.06;;;12.40;75.40
19108;BME280;9686;48.832;9.126;2023-04-08T12:07:52;98621.41;;;12.24;75.67
19108;BME280;9686;48.832;9.126;2023-04-08T12:10:17;98625.78;;;12.18;73.84
19108;BME280;9686;48.832;9.126;2023-04-08T12:12:43;98629.31;;;12.08;73.46
19108;BME280;9686;48.832;9.126;2023-04-08T12:15:09;98620.56;;;12.15;76.25
19108;BME280;9686;48.832;9.126;2023-04-08T12:17:35;98618.78;;;12.26;79.81
19108;BME280;9686;48.832;9.126;2023-04-08T12:20:00;98631.00;;;12.15;73.37
19108;BME280;9686;48.832;9.126;2023-04-08T12:22:26;98628.41;;;12.13;80.59
19108;BME280;9686;48.832;9.126;2023-04-08T12:24:51;98624.03;;;12.17;79.20
19108;BME280;9686;48.832;9.126;2023-04-08T12:27:16;98632.78;;;12.11;81.39
19108;BME280;9686;48.832;9.126;2023-04-08T12:29:42;98636.22;;;12.18;73.32
19108;BME280;9686;48.832;9.126;2023-04-08T12:32:10;98638.06;;;12.03;70.75
19108;BME280;9686;48.832;9.126;2023-04-08T12:34:36;98640.59;;;12.14;75.06
19108;BME280;9686;48.832;9.126;2023-04-08T12:37:01;98633.63;;;12.13;80.03
19108;BME280;9686;48.832;9.126;2023-04-08T12:39:26;98637.16;;;12.06;76.86
19108;BME280;9686;48.832;9.126;2023-04-08T12:41:52;98631.84;;;12.20;79.76
19108;BME280;9686;48.832;9.126;2023-04-08T12:44:17;98637.94;;;12.26;79.36
19108;BME280;9686;48.832;9.126;2023-04-08T12:46:43;98633.56;;;12.22;79.07
19108;BME280;9686;48.832;9.126;2023-04-08T12:49:08;98639.66;;;12.29;79.88
19108;BME280;9686;48.832;9.126;2023-04-08T12:51:34;98636.16;;;12.30;80.17
19108;BME280;9686;48.832;9.126;2023-04-08T12:54:00;98626.47;;;12.43;72.90
19108;BME280;9686;48.832;9.126;2023-04-08T12:56:27;98628.22;;;12.42;76.88
19108;BME280;9686;48.832;9.126;2023-04-08T12:58:53;98629.06;;;12.50;79.05
19108;BME280;9686;48.832;9.126;2023-04-08T13:01:19;98622.91;;;12.59;75.70
19108;BME280;9686;48.832;9.126;2023-04-08T13:03:45;98628.94;;;12.65;71.44
19108;BME280;9686;48.832;9.126;2023-04-08T13:06:12;98630.75;;;12.59;72.04
19108;BME280;9686;48.832;9.126;2023-04-08T13:08:37;98625.59;;;12.47;71.52
19108;BME280;9686;48.832;9.126;2023-04-08T13:11:02;98631.88;;;12.15;71.71
19108;BME280;9686;48.832;9.126;2023-04-08T13:13:28;98625.84;;;12.09;73.35
19108;BME280;9686;48.832;9.126;2023-04-08T13:15:53;98628.31;;;12.30;77.96